sensor_id;sensor_type;location;lat;lon;timestamp;pressure;altitude;pressure_sealevel;temperature;humidity
21742;BME280;11033;47.490;11.116;2023-02-17T00:03:39;94062.19;;;5.09;58.70
21742;BME280;11033;47.490;11.116;2023-02-17T00:06:06;94059.19;;;5.14;59.57
21742;BME280;11033;47.490;11.116;2023-02-17T00:08:32;94058.63;;;5.10;58.56
21742;BME280;11033;47.490;11.116;2023-02-17T00:10:57;94054.22;;;5.01;60.83
21742;BME280;11033;47.490;11.116;2023-02-17T00:13:23;94054.22;;;5.01;59.58
21742;BME280;11033;47.490;11.116;2023-02-17T00:15:48;94053.69;;;5.07;58.61
21742;BME280;11033;47.490;11.116;2023-02-17T00:18:13;94058.91;;;5.07;59.90
21742;BME280;11033;47.490;11.116;2023-02-17T00:20:38;94048.03;;;5.02;59.93
21742;BME280;11033;47.490;11.116;2023-02-17T00:23:04;94047.63;;;5.07;58.37
21742;BME280;11033;47.490;11.116;2023-02-17T00:25:29;94055.06;;;5.12;58.82
21742;BME280;11033;47.490;11.116;2023-02-17T00:27:54;94048.47;;;5.07;57.89
21742;BME280;11033;47.490;11.116;2023-02-17T00:30:19;94057.13;;;5.18;57.16
21742;BME280;11033;47.490;11.116;2023-02-17T00:32:45;94056.97;;;5.09;58.81
21742;BME280;11033;47.490;11.116;2023-02-17T00:35:10;94060.63;;;5.28;57.68
21742;BME280;11033;47.490;11.116;2023-02-17T00:37:35;94058.28;;;5.25;58.21
21742;BME280;11033;47.490;11.116;2023-02-17T00:40:01;94057.66;;;5.12;58.85
21742;BME280;11033;47.490;11.116;2023-02-17T00:42:26;94061.56;;;5.27;57.61
21742;BME280;11033;47.490;11.116;2023-02-17T00:44:51;94061.72;;;5.35;56.95
21742;BME280;11033;47.490;11.116;2023-02-17T00:47:16;94056.16;;;5.19;58.34
21742;BME280;11033;47.490;11.116;2023-02-17T00:49:42;94060.28;;;5.12;58.77
21742;BME280;11033;47.490;11.116;2023-02-17T00:52:07;94068.81;;;5.14;57.83
21742;BME280;11033;47.490;11.116;2023-02-17T00:54:32;94062.47;;;5.06;58.70
21742;BME280;11033;47.490;11.116;2023-02-17T00:56:57;94062.06;;;5.11;58.58
21742;BME280;11033;47.490;11.116;2023-02-17T00:59:23;94064.13;;;5.07;58.53
21742;BME280;11033;47.490;11.116;2023-02-17T01:01:48;94064.13;;;5.07;59.09
21742;BME280;11033;47.490;11.116;2023-02-17T01:04:13;94061.63;;;4.96;59.99
21742;BME280;11033;47.490;11.116;2023-02-17T01:06:39;94064.94;;;4.98;59.01
21742;BME280;11033;47.490;11.116;2023-02-17T01:09:06;94055.97;;;4.91;59.02
21742;BME280;11033;47.490;11.116;2023-02-17T01:11:33;94051.59;;;5.01;58.01
21742;BME280;11033;47.490;11.116;2023-02-17T01:14:01;94050.78;;;5.01;58.14
21742;BME280;11033;47.490;11.116;2023-02-17T01:16:29;94060.41;;;5.00;58.08
21742;BME280;11033;47.490;11.116;2023-02-17T01:19:10;94047.06;;;5.03;58.36
21742;BME280;11033;47.490;11.116;2023-02-17T01:21:35;94057.53;;;5.03;60.14
21742;BME280;11033;47.490;11.116;2023-02-17T01:24:02;94043.78;;;5.11;58.40
21742;BME280;11033;47.490;11.116;2023-02-17T01:26:30;94042.97;;;5.10;57.80
21742;BME280;11033;47.490;11.116;2023-02-17T01:28:57;94054.00;;;5.24;58.48
21742;BME280;11033;47.490;11.116;2023-02-17T01:31:23;94040.34;;;5.10;59.69
21742;BME280;11033;47.490;11.116;2023-02-17T01:33:49;94039.94;;;5.05;59.78
21742;BME280;11033;47.490;11.116;2023-02-17T01:36:17;94038.28;;;5.04;59.64
21742;BME280;11033;47.490;11.116;2023-02-17T01:38:43;94029.50;;;5.15;58.39
21742;BME280;11033;47.490;11.116;2023-02-17T01:41:10;94018.78;;;5.08;58.58
21742;BME280;11033;47.490;11.116;2023-02-17T01:43:37;94022.34;;;5.07;59.24
21742;BME280;11033;47.490;11.116;2023-02-17T01:46:04;94026.19;;;5.03;60.37
21742;BME280;11033;47.490;11.116;2023-02-17T01:48:35;94017.25;;;4.96;60.61
21742;BME280;11033;47.490;11.116;2023-02-17T01:51:05;94014.25;;;5.10;58.36
21742;BME280;11033;47.490;11.116;2023-02-17T01:56:00;94005.31;;;5.03;59.65
21742;BME280;11033;47.490;11.116;2023-02-17T01:58:26;94016.31;;;5.07;59.95
21742;BME280;11033;47.490;11.116;2023-02-17T02:00:55;94011.91;;;5.07;59.70
21742;BME280;11033;47.490;11.116;2023-02-17T02:03:24;94001.19;;;5.01;59.65
21742;BME280;11033;47.490;11.116;2023-02-17T02:05:51;93993.06;;;5.04;59.87
21742;BME280;11033;47.490;11.116;2023-02-17T02:08:16;93995.56;;;5.15;58.43
21742;BME280;11033;47.490;11.116;2023-02-17T02:10:41;93996.25;;;5.07;60.09
21742;BME280;11033;47.490;11.116;2023-02-17T02:13:07;93996.81;;;5.21;58.27
21742;BME280;11033;47.490;11.116;2023-02-17T02:15:38;93992.13;;;5.05;60.33
21742;BME280;11033;47.490;11.116;2023-02-17T02:24:01;93982.63;;;5.14;59.09
21742;BME280;11033;47.490;11.116;2023-02-17T02:29:57;93967.94;;;5.13;58.70
21742;BME280;11033;47.490;11.116;2023-02-17T02:37:59;93962.72;;;5.13;58.72
21742;BME280;11033;47.490;11.116;2023-02-17T02:40:30;93968.09;;;5.21;58.27
21742;BME280;11033;47.490;11.116;2023-02-17T02:43:00;93978.97;;;5.26;58.53
21742;BME280;11033;47.490;11.116;2023-02-17T02:45:26;93973.31;;;5.21;58.40
21742;BME280;11033;47.490;11.116;2023-02-17T02:47:53;93974.84;;;5.23;58.47
21742;BME280;11033;47.490;11.116;2023-02-17T02:55:47;93978.66;;;5.19;58.94
21742;BME280;11033;47.490;11.116;2023-02-17T03:00:57;93968.66;;;5.34;58.27
21742;BME280;11033;47.490;11.116;2023-02-17T03:03:34;93970.72;;;5.40;57.73
21742;BME280;11033;47.490;11.116;2023-02-17T03:08:41;93967.28;;;5.30;57.53
21742;BME280;11033;47.490;11.116;2023-02-17T03:11:08;93978.28;;;5.24;58.39
21742;BME280;11033;47.490;11.116;2023-02-17T03:13:35;93977.31;;;5.34;58.19
21742;BME280;11033;47.490;11.116;2023-02-17T03:16:04;93982.25;;;5.28;58.98
21742;BME280;11033;47.490;11.116;2023-02-17T03:18:34;93980.19;;;5.22;58.25
21742;BME280;11033;47.490;11.116;2023-02-17T03:21:05;93976.22;;;5.27;58.32
21742;BME280;11033;47.490;11.116;2023-02-17T03:23:34;93980.34;;;5.30;57.49
21742;BME280;11033;47.490;11.116;2023-02-17T03:25:59;93982.53;;;5.25;59.20
21742;BME280;11033;47.490;11.116;2023-02-17T03:28:25;93977.44;;;5.33;58.08
21742;BME280;11033;47.490;11.116;2023-02-17T03:30:50;93980.06;;;5.33;57.45
21742;BME280;11033;47.490;11.116;2023-02-17T03:33:15;93973.75;;;5.26;58.30
21742;BME280;11033;47.490;11.116;2023-02-17T03:35:41;93977.16;;;5.36;58.13
21742;BME280;11033;47.490;11.116;2023-02-17T03:38:06;93975.53;;;5.25;57.87
21742;BME280;11033;47.490;11.116;2023-02-17T03:40:31;93976.88;;;5.20;58.19
21742;BME280;11033;47.490;11.116;2023-02-17T03:42:57;93974.97;;;5.31;58.51
21742;BME280;11033;47.490;11.116;2023-02-17T03:45:22;93974.56;;;5.36;57.76
21742;BME280;11033;47.490;11.116;2023-02-17T03:47:48;93977.59;;;5.41;57.07
21742;BME280;11033;47.490;11.116;2023-02-17T03:50:13;93962.19;;;5.38;58.06
21742;BME280;11033;47.490;11.116;2023-02-17T03:52:38;93972.38;;;5.31;58.28
21742;BME280;11033;47.490;11.116;2023-02-17T03:55:04;93970.56;;;5.32;57.89
21742;BME280;11033;47.490;11.116;2023-02-17T03:57:29;93964.66;;;5.30;57.66
21742;BME280;11033;47.490;11.116;2023-02-17T03:59:56;93955.31;;;5.27;59.12
21742;BME280;11033;47.490;11.116;2023-02-17T04:02:21;93963.28;;;5.45;58.74
21742;BME280;11033;47.490;11.116;2023-02-17T04:04:46;93957.38;;;5.43;57.89
21742;BME280;11033;47.490;11.116;2023-02-17T04:07:12;93954.88;;;5.51;57.55
21742;BME280;11033;47.490;11.116;2023-02-17T04:09:37;93957.25;;;5.35;59.22
21742;BME280;11033;47.490;11.116;2023-02-17T04:12:02;93956.97;;;5.38;57.96
21742;BME280;11033;47.490;11.116;2023-02-17T04:14:28;93959.44;;;5.49;57.50
21742;BME280;11033;47.490;11.116;2023-02-17T04:16:53;93954.75;;;5.43;57.97
21742;BME280;11033;47.490;11.116;2023-02-17T04:19:18;93957.09;;;5.46;57.67
21742;BME280;11033;47.490;11.116;2023-02-17T04:21:43;93944.31;;;5.43;58.24
21742;BME280;11033;47.490;11.116;2023-02-17T04:24:09;93945.69;;;5.47;58.32
21742;BME280;11033;47.490;11.116;2023-02-17T04:26:34;93943.19;;;5.55;57.80
21742;BME280;11033;47.490;11.116;2023-02-17T04:29:02;93941.81;;;5.51;56.87
21742;BME280;11033;47.490;11.116;2023-02-17T04:31:28;93945.97;;;5.44;58.77
21742;BME280;11033;47.490;11.116;2023-02-17T04:33:53;93941.28;;;5.48;57.39
21742;BME280;11033;47.490;11.116;2023-02-17T04:36:19;93939.22;;;5.41;58.35
21742;BME280;11033;47.490;11.116;2023-02-17T04:38:44;93942.25;;;5.37;58.72
21742;BME280;11033;47.490;11.116;2023-02-17T04:41:10;93944.31;;;5.43;58.38
21742;BME280;11033;47.490;11.116;2023-02-17T04:43:35;93944.84;;;5.47;58.28
21742;BME280;11033;47.490;11.116;2023-02-17T04:46:01;93940.31;;;5.49;58.70
21742;BME280;11033;47.490;11.116;2023-02-17T04:48:26;93943.19;;;5.55;58.37
21742;BME280;11033;47.490;11.116;2023-02-17T04:50:52;93945.38;;;5.60;56.98
21742;BME280;11033;47.490;11.116;2023-02-17T04:53:18;93954.19;;;5.49;58.04
21742;BME280;11033;47.490;11.116;2023-02-17T04:55:43;93959.16;;;5.52;58.88
21742;BME280;11033;47.490;11.116;2023-02-17T04:58:09;93953.66;;;5.46;58.07
21742;BME280;11033;47.490;11.116;2023-02-17T05:00:35;93947.59;;;5.45;59.25
21742;BME280;11033;47.490;11.116;2023-02-17T05:03:00;93953.63;;;5.55;57.79
21742;BME280;11033;47.490;11.116;2023-02-17T05:05:26;93956.25;;;5.55;56.67
21742;BME280;11033;47.490;11.116;2023-02-17T05:07:51;93954.03;;;5.60;57.68
21742;BME280;11033;47.490;11.116;2023-02-17T05:10:17;93951.16;;;5.54;58.46
21742;BME280;11033;47.490;11.116;2023-02-17T05:12:42;93954.59;;;5.54;57.16
21742;BME280;11033;47.490;11.116;2023-02-17T05:15:08;93959.69;;;5.56;58.31
21742;BME280;11033;47.490;11.116;2023-02-17T05:17:34;93959.16;;;5.52;57.98
21742;BME280;11033;47.490;11.116;2023-02-17T05:20:00;93948.97;;;5.49;57.84
21742;BME280;11033;47.490;11.116;2023-02-17T05:22:26;93951.19;;;5.44;58.55
21742;BME280;11033;47.490;11.116;2023-02-17T05:24:52;93956.69;;;5.41;59.06
21742;BME280;11033;47.490;11.116;2023-02-17T05:27:17;93942.53;;;5.34;59.82
21742;BME280;11033;47.490;11.116;2023-02-17T05:29:42;93947.75;;;5.44;58.73
21742;BME280;11033;47.490;11.116;2023-02-17T05:32:08;93939.50;;;5.48;58.23
21742;BME280;11033;47.490;11.116;2023-02-17T05:34:34;93938.53;;;5.30;59.57
21742;BME280;11033;47.490;11.116;2023-02-17T05:36:59;93932.09;;;5.34;59.13
21742;BME280;11033;47.490;11.116;2023-02-17T05:39:25;93923.94;;;5.47;59.05
21742;BME280;11033;47.490;11.116;2023-02-17T05:41:50;93942.94;;;5.39;58.30
21742;BME280;11033;47.490;11.116;2023-02-17T05:44:15;93930.56;;;5.31;58.76
21742;BME280;11033;47.490;11.116;2023-02-17T05:46:40;93924.53;;;5.31;58.75
21742;BME280;11033;47.490;11.116;2023-02-17T05:49:06;93923.69;;;5.30;58.64
21742;BME280;11033;47.490;11.116;2023-02-17T05:51:31;93928.50;;;5.35;57.81
21742;BME280;11033;47.490;11.116;2023-02-17T05:53:56;93934.69;;;5.34;58.51
21742;BME280;11033;47.490;11.116;2023-02-17T05:56:22;93927.81;;;5.33;58.06
21742;BME280;11033;47.490;11.116;2023-02-17T05:58:47;93939.91;;;5.34;57.83
21742;BME280;11033;47.490;11.116;2023-02-17T06:01:12;93928.78;;;5.32;58.69
21742;BME280;11033;47.490;11.116;2023-02-17T06:03:38;93938.81;;;5.36;58.00
21742;BME280;11033;47.490;11.116;2023-02-17T06:06:04;93938.00;;;5.36;59.28
21742;BME280;11033;47.490;11.116;2023-02-17T06:08:29;93935.53;;;5.34;57.61
21742;BME280;11033;47.490;11.116;2023-02-17T06:10:54;93938.53;;;5.39;57.80
21742;BME280;11033;47.490;11.116;2023-02-17T06:13:20;93934.13;;;5.40;58.86
21742;BME280;11033;47.490;11.116;2023-02-17T06:15:46;93928.66;;;5.33;58.08
21742;BME280;11033;47.490;11.116;2023-02-17T06:18:12;93930.84;;;5.38;58.88
21742;BME280;11033;47.490;11.116;2023-02-17T06:20:37;93947.88;;;5.42;58.78
21742;BME280;11033;47.490;11.116;2023-02-17T06:23:02;93936.88;;;5.38;58.62
21742;BME280;11033;47.490;11.116;2023-02-17T06:25:28;93927.53;;;5.36;58.30
21742;BME280;11033;47.490;11.116;2023-02-17T06:27:53;93936.63;;;5.32;58.78
21742;BME280;11033;47.490;11.116;2023-02-17T06:30:18;93929.75;;;5.31;58.74
21742;BME280;11033;47.490;11.116;2023-02-17T06:32:45;93931.81;;;5.37;58.30
21742;BME280;11033;47.490;11.116;2023-02-17T06:35:10;93930.03;;;5.28;59.34
21742;BME280;11033;47.490;11.116;2023-02-17T06:37:36;93938.28;;;5.33;58.49
21742;BME280;11033;47.490;11.116;2023-02-17T06:40:01;93947.47;;;5.37;59.01
21742;BME280;11033;47.490;11.116;2023-02-17T06:42:26;93954.63;;;5.35;59.19
21742;BME280;11033;47.490;11.116;2023-02-17T06:44:51;93955.31;;;5.37;57.82
21742;BME280;11033;47.490;11.116;2023-02-17T06:47:17;93959.44;;;5.39;58.27
21742;BME280;11033;47.490;11.116;2023-02-17T06:49:42;93972.34;;;5.41;58.53
21742;BME280;11033;47.490;11.116;2023-02-17T06:52:07;93959.56;;;5.38;58.50
21742;BME280;11033;47.490;11.116;2023-02-17T06:54:32;93971.25;;;5.34;59.62
21742;BME280;11033;47.490;11.116;2023-02-17T06:56:58;93963.41;;;5.53;58.64
21742;BME280;11033;47.490;11.116;2023-02-17T06:59:23;93965.75;;;5.47;59.32
21742;BME280;11033;47.490;11.116;2023-02-17T07:01:48;93972.75;;;5.46;59.39
21742;BME280;11033;47.490;11.116;2023-02-17T07:04:14;93977.31;;;5.44;59.93
21742;BME280;11033;47.490;11.116;2023-02-17T07:06:39;93982.38;;;5.55;58.39
21742;BME280;11033;47.490;11.116;2023-02-17T07:09:05;93979.78;;;5.55;59.28
21742;BME280;11033;47.490;11.116;2023-02-17T07:11:30;93978.38;;;5.61;58.97
21742;BME280;11033;47.490;11.116;2023-02-17T07:13:57;93968.75;;;5.61;58.62
21742;BME280;11033;47.490;11.116;2023-02-17T07:16:22;93973.16;;;5.70;58.55
21742;BME280;11033;47.490;11.116;2023-02-17T07:18:48;93980.56;;;5.75;58.20
21742;BME280;11033;47.490;11.116;2023-02-17T07:21:14;93976.56;;;5.81;58.98
21742;BME280;11033;47.490;11.116;2023-02-17T07:23:39;93971.78;;;5.86;58.93
21742;BME280;11033;47.490;11.116;2023-02-17T07:26:07;93974.53;;;5.94;58.35
21742;BME280;11033;47.490;11.116;2023-02-17T07:28:33;93979.47;;;5.97;58.71
21742;BME280;11033;47.490;11.116;2023-02-17T07:31:11;93976.16;;;6.04;59.91
21742;BME280;11033;47.490;11.116;2023-02-17T07:33:37;93968.41;;;6.13;58.64
21742;BME280;11033;47.490;11.116;2023-02-17T07:36:11;93966.84;;;6.29;58.02
21742;BME280;11033;47.490;11.116;2023-02-17T07:38:37;93970.25;;;6.40;57.89
21742;BME280;11033;47.490;11.116;2023-02-17T07:41:08;93964.72;;;6.43;57.68
21742;BME280;11033;47.490;11.116;2023-02-17T07:43:34;93972.81;;;6.49;58.15
21742;BME280;11033;47.490;11.116;2023-02-17T07:45:59;93966.59;;;6.60;57.64
21742;BME280;11033;47.490;11.116;2023-02-17T07:48:25;93971.25;;;6.66;57.87
21742;BME280;11033;47.490;11.116;2023-02-17T07:50:50;93964.16;;;6.76;57.78
21742;BME280;11033;47.490;11.116;2023-02-17T07:53:15;93977.72;;;6.89;57.25
21742;BME280;11033;47.490;11.116;2023-02-17T07:55:41;93967.78;;;6.93;57.05
21742;BME280;11033;47.490;11.116;2023-02-17T07:58:06;93968.59;;;6.93;56.91
21742;BME280;11033;47.490;11.116;2023-02-17T08:00:31;93967.03;;;7.00;56.69
21742;BME280;11033;47.490;11.116;2023-02-17T08:02:56;93965.75;;;7.05;57.06
21742;BME280;11033;47.490;11.116;2023-02-17T08:05:22;93966.81;;;7.12;56.04
21742;BME280;11033;47.490;11.116;2023-02-17T08:07:47;93978.69;;;7.16;56.63
21742;BME280;11033;47.490;11.116;2023-02-17T08:10:32;93976.81;;;7.26;56.62
21742;BME280;11033;47.490;11.116;2023-02-17T08:13:16;93978.81;;;7.32;54.85
21742;BME280;11033;47.490;11.116;2023-02-17T08:15:44;93975.22;;;7.33;55.19
21742;BME280;11033;47.490;11.116;2023-02-17T08:18:10;93973.59;;;7.32;56.35
21742;BME280;11033;47.490;11.116;2023-02-17T08:20:35;93973.97;;;7.37;55.92
21742;BME280;11033;47.490;11.116;2023-02-17T08:23:00;93988.84;;;7.54;56.07
21742;BME280;11033;47.490;11.116;2023-02-17T08:25:30;93983.81;;;7.61;55.76
21742;BME280;11033;47.490;11.116;2023-02-17T08:27:56;93983.31;;;7.57;55.43
21742;BME280;11033;47.490;11.116;2023-02-17T08:30:21;93975.66;;;7.64;56.39
21742;BME280;11033;47.490;11.116;2023-02-17T08:32:46;93974.91;;;7.72;56.07
21742;BME280;11033;47.490;11.116;2023-02-17T08:35:12;93973.72;;;7.84;56.02
21742;BME280;11033;47.490;11.116;2023-02-17T08:37:37;93985.75;;;7.94;55.31
21742;BME280;11033;47.490;11.116;2023-02-17T08:40:03;93974.44;;;7.94;55.02
21742;BME280;11033;47.490;11.116;2023-02-17T08:42:30;93979.13;;;8.08;55.22
21742;BME280;11033;47.490;11.116;2023-02-17T08:44:55;93971.75;;;8.12;55.16
21742;BME280;11033;47.490;11.116;2023-02-17T08:47:21;93979.06;;;8.26;55.86
21742;BME280;11033;47.490;11.116;2023-02-17T08:49:46;93986.69;;;8.37;55.52
21742;BME280;11033;47.490;11.116;2023-02-17T08:52:11;93981.66;;;8.44;55.24
21742;BME280;11033;47.490;11.116;2023-02-17T08:54:36;93988.16;;;8.57;55.51
21742;BME280;11033;47.490;11.116;2023-02-17T08:57:02;93981.44;;;8.63;55.47
21742;BME280;11033;47.490;11.116;2023-02-17T08:59:27;93983.28;;;8.71;55.34
21742;BME280;11033;47.490;11.116;2023-02-17T09:01:53;93984.47;;;8.84;55.81
21742;BME280;11033;47.490;11.116;2023-02-17T09:04:18;93973.84;;;8.94;55.90
21742;BME280;11033;47.490;11.116;2023-02-17T09:06:46;93971.28;;;9.10;54.83
21742;BME280;11033;47.490;11.116;2023-02-17T09:09:13;93972.44;;;9.16;55.41
21742;BME280;11033;47.490;11.116;2023-02-17T09:11:39;93974.13;;;9.33;55.26
21742;BME280;11033;47.490;11.116;2023-02-17T09:14:05;93981.03;;;9.50;54.38
21742;BME280;11033;47.490;11.116;2023-02-17T09:16:31;93984.00;;;9.64;53.80
21742;BME280;11033;47.490;11.116;2023-02-17T09:18:56;93986.31;;;9.75;53.64
21742;BME280;11033;47.490;11.116;2023-02-17T09:21:22;93996.22;;;9.89;54.06
21742;BME280;11033;47.490;11.116;2023-02-17T09:23:49;94000.81;;;10.03;53.65
21742;BME280;11033;47.490;11.116;2023-02-17T09:26:16;94005.56;;;10.16;54.08
21742;BME280;11033;47.490;11.116;2023-02-17T09:28:42;94004.44;;;10.27;52.87
21742;BME280;11033;47.490;11.116;2023-02-17T09:33:38;94012.50;;;10.41;52.79
21742;BME280;11033;47.490;11.116;2023-02-17T09:36:05;94013.47;;;10.48;52.26
21742;BME280;11033;47.490;11.116;2023-02-17T09:38:32;94013.47;;;10.57;52.63
21742;BME280;11033;47.490;11.116;2023-02-17T09:41:07;94006.72;;;10.54;52.30
21742;BME280;11033;47.490;11.116;2023-02-17T09:43:38;94012.47;;;10.58;51.14
21742;BME280;11033;47.490;11.116;2023-02-17T09:46:20;94008.00;;;10.66;51.51
21742;BME280;11033;47.490;11.116;2023-02-17T09:48:48;94011.91;;;10.78;52.28
21742;BME280;11033;47.490;11.116;2023-02-17T09:51:43;94012.22;;;10.84;52.58
21742;BME280;11033;47.490;11.116;2023-02-17T09:54:14;94021.75;;;10.93;52.15
21742;BME280;11033;47.490;11.116;2023-02-17T09:56:43;94018.09;;;11.02;52.17
21742;BME280;11033;47.490;11.116;2023-02-17T09:59:23;94021.38;;;11.12;50.49
21742;BME280;11033;47.490;11.116;2023-02-17T10:01:52;94017.22;;;11.18;50.82
21742;BME280;11033;47.490;11.116;2023-02-17T10:04:21;94021.00;;;11.23;51.21
21742;BME280;11033;47.490;11.116;2023-02-17T10:06:51;94028.34;;;11.36;50.48
21742;BME280;11033;47.490;11.116;2023-02-17T10:09:26;94031.13;;;11.42;49.28
21742;BME280;11033;47.490;11.116;2023-02-17T10:12:07;94014.28;;;11.43;49.93
21742;BME280;11033;47.490;11.116;2023-02-17T10:14:38;94017.19;;;11.57;48.90
21742;BME280;11033;47.490;11.116;2023-02-17T10:17:25;94023.75;;;11.61;49.65
21742;BME280;11033;47.490;11.116;2023-02-17T10:20:02;94020.75;;;11.64;50.22
21742;BME280;11033;47.490;11.116;2023-02-17T10:22:29;94023.69;;;11.69;50.48
21742;BME280;11033;47.490;11.116;2023-02-17T10:24:57;94036.41;;;11.73;50.87
21742;BME280;11033;47.490;11.116;2023-02-17T10:27:34;94029.47;;;11.72;49.46
21742;BME280;11033;47.490;11.116;2023-02-17T10:33:12;94033.91;;;11.80;50.20
21742;BME280;11033;47.490;11.116;2023-02-17T10:35:52;94023.28;;;11.88;49.38
21742;BME280;11033;47.490;11.116;2023-02-17T10:41:13;94022.47;;;11.88;51.06
21742;BME280;11033;47.490;11.116;2023-02-17T10:43:40;94030.63;;;11.78;50.96
21742;BME280;11033;47.490;11.116;2023-02-17T10:46:07;94026.94;;;11.87;51.28
21742;BME280;11033;47.490;11.116;2023-02-17T10:48:37;94021.25;;;11.98;50.49
21742;BME280;11033;47.490;11.116;2023-02-17T10:51:04;94018.59;;;11.98;51.11
21742;BME280;11033;47.490;11.116;2023-02-17T10:53:35;94026.47;;;12.06;50.61
21742;BME280;11033;47.490;11.116;2023-02-17T10:56:09;94018.81;;;12.12;49.41
21742;BME280;11033;47.490;11.116;2023-02-17T11:01:11;94015.47;;;12.18;50.35
21742;BME280;11033;47.490;11.116;2023-02-17T11:03:37;94014.13;;;12.22;49.68
21742;BME280;11033;47.490;11.116;2023-02-17T11:06:15;94003.47;;;12.30;50.26
21742;BME280;11033;47.490;11.116;2023-02-17T11:08:58;93998.78;;;12.40;50.76
21742;BME280;11033;47.490;11.116;2023-02-17T11:11:26;93991.78;;;12.47;50.50
21742;BME280;11033;47.490;11.116;2023-02-17T11:16:43;93988.03;;;12.56;51.32
21742;BME280;11033;47.490;11.116;2023-02-17T11:19:22;93990.16;;;12.76;51.02
21742;BME280;11033;47.490;11.116;2023-02-17T11:21:52;93993.06;;;12.81;51.25
21742;BME280;11033;47.490;11.116;2023-02-17T11:24:18;93984.31;;;12.95;50.80
21742;BME280;11033;47.490;11.116;2023-02-17T11:26:57;93983.25;;;13.04;49.06
21742;BME280;11033;47.490;11.116;2023-02-17T11:29:23;93981.06;;;13.22;49.83
21742;BME280;11033;47.490;11.116;2023-02-17T11:31:54;93966.16;;;13.36;50.12
21742;BME280;11033;47.490;11.116;2023-02-17T11:34:23;93965.09;;;13.52;49.86
21742;BME280;11033;47.490;11.116;2023-02-17T11:36:58;93958.69;;;13.61;49.06
21742;BME280;11033;47.490;11.116;2023-02-17T11:39:23;93955.19;;;13.75;47.72
21742;BME280;11033;47.490;11.116;2023-02-17T11:41:48;93955.31;;;13.88;47.18
21742;BME280;11033;47.490;11.116;2023-02-17T11:44:25;93950.59;;;14.12;48.34
21742;BME280;11033;47.490;11.116;2023-02-17T11:50:11;93941.06;;;14.39;46.44
21742;BME280;11033;47.490;11.116;2023-02-17T11:53:28;93947.81;;;14.41;45.85
21742;BME280;11033;47.490;11.116;2023-02-17T11:58:02;93937.09;;;14.49;45.86
21742;BME280;11033;47.490;11.116;2023-02-17T12:03:31;93951.81;;;14.58;46.09
21742;BME280;11033;47.490;11.116;2023-02-17T12:09:10;93940.81;;;14.62;46.81
21742;BME280;11033;47.490;11.116;2023-02-17T12:11:50;93930.28;;;14.75;47.82
21742;BME280;11033;47.490;11.116;2023-02-17T12:17:21;93933.56;;;14.77;47.29
21742;BME280;11033;47.490;11.116;2023-02-17T12:22:43;93931.38;;;14.87;46.06
21742;BME280;11033;47.490;11.116;2023-02-17T12:25:23;93922.25;;;14.62;46.71
21742;BME280;11033;47.490;11.116;2023-02-17T12:27:57;93927.88;;;14.80;47.21
21742;BME280;11033;47.490;11.116;2023-02-17T12:36:03;93910.78;;;14.89;46.67
21742;BME280;11033;47.490;11.116;2023-02-17T12:38:38;93900.28;;;15.09;45.91
21742;BME280;11033;47.490;11.116;2023-02-17T12:41:10;93904.38;;;15.11;46.92
21742;BME280;11033;47.490;11.116;2023-02-17T12:43:44;93894.25;;;15.48;46.26
21742;BME280;11033;47.490;11.116;2023-02-17T12:46:23;93896.81;;;15.69;45.42
21742;BME280;11033;47.490;11.116;2023-02-17T12:49:02;93892.94;;;15.92;45.88
21742;BME280;11033;47.490;11.116;2023-02-17T12:51:40;93881.91;;;16.08;44.61
21742;BME280;11033;47.490;11.116;2023-02-17T12:54:25;93890.88;;;16.20;44.77
21742;BME280;11033;47.490;11.116;2023-02-17T12:59:44;93881.69;;;16.29;43.74
21742;BME280;11033;47.490;11.116;2023-02-17T13:04:41;93879.63;;;16.44;43.69
21742;BME280;11033;47.490;11.116;2023-02-17T13:09:38;93870.16;;;16.75;44.31
21742;BME280;11033;47.490;11.116;2023-02-17T13:14:58;93888.84;;;16.48;44.31
21742;BME280;11033;47.490;11.116;2023-02-17T13:17:39;93893.75;;;16.32;43.88
21742;BME280;11033;47.490;11.116;2023-02-17T13:22:30;93882.50;;;16.36;44.19
21742;BME280;11033;47.490;11.116;2023-02-17T13:24:55;93882.91;;;16.46;44.28
21742;BME280;11033;47.490;11.116;2023-02-17T13:30:03;93880.88;;;16.15;43.84
21742;BME280;11033;47.490;11.116;2023-02-17T13:32:32;93890.09;;;16.33;44.68
21742;BME280;11033;47.490;11.116;2023-02-17T13:35:05;93882.50;;;16.36;43.99
21742;BME280;11033;47.490;11.116;2023-02-17T13:39:57;93891.72;;;16.40;44.47
21742;BME280;11033;47.490;11.116;2023-02-17T13:42:38;93898.44;;;16.49;44.25
21742;BME280;11033;47.490;11.116;2023-02-17T13:47:45;93898.06;;;16.26;44.65
21742;BME280;11033;47.490;11.116;2023-02-17T13:50:30;93890.50;;;16.36;44.80
21742;BME280;11033;47.490;11.116;2023-02-17T13:52:55;93904.19;;;16.33;44.44
21742;BME280;11033;47.490;11.116;2023-02-17T13:55:21;93899.69;;;16.14;45.33
21742;BME280;11033;47.490;11.116;2023-02-17T13:57:54;93897.63;;;16.03;44.67
21742;BME280;11033;47.490;11.116;2023-02-17T14:00:21;93896.81;;;15.96;45.16
21742;BME280;11033;47.490;11.116;2023-02-17T14:02:56;93897.63;;;15.96;45.80
21742;BME280;11033;47.490;11.116;2023-02-17T14:05:27;93907.03;;;15.72;45.76
21742;BME280;11033;47.490;11.116;2023-02-17T14:08:06;93904.03;;;15.41;46.56
21742;BME280;11033;47.490;11.116;2023-02-17T14:10:36;93904.81;;;15.21;49.19
21742;BME280;11033;47.490;11.116;2023-02-17T14:13:02;93913.00;;;15.27;51.22
21742;BME280;11033;47.490;11.116;2023-02-17T14:15:27;93907.59;;;15.00;51.88
21742;BME280;11033;47.490;11.116;2023-02-17T14:17:53;93912.91;;;15.00;52.39
21742;BME280;11033;47.490;11.116;2023-02-17T14:20:35;93924.38;;;14.73;53.82
21742;BME280;11033;47.490;11.116;2023-02-17T14:23:11;93927.41;;;14.42;54.87
21742;BME280;11033;47.490;11.116;2023-02-17T14:25:40;93940.50;;;14.43;56.33
21742;BME280;11033;47.490;11.116;2023-02-17T14:28:20;93946.09;;;14.55;54.53
21742;BME280;11033;47.490;11.116;2023-02-17T14:30:46;93945.16;;;14.41;55.06